createdAt,value
2022-12-13T00:01:56.935Z,-0.10
2022-12-13T00:04:27.241Z,-0.10
2022-12-13T00:06:54.557Z,-0.10
2022-12-13T00:09:22.301Z,-0.10
2022-12-13T00:11:52.312Z,-0.10
2022-12-13T00:14:21.721Z,-0.20
2022-12-13T00:16:49.680Z,-0.20
2022-12-13T00:19:18.017Z,-0.20
2022-12-13T00:21:47.656Z,-0.20
2022-12-13T00:24:17.149Z,-0.20
2022-12-13T00:26:44.336Z,-0.20
2022-12-13T00:29:11.986Z,-0.20
2022-12-13T00:34:26.515Z,-0.30
2022-12-13T00:36:54.851Z,-0.30
2022-12-13T00:39:22.221Z,-0.30
2022-12-13T00:41:49.359Z,-0.30
2022-12-13T00:44:21.417Z,-0.30
2022-12-13T00:46:53.916Z,-0.40
2022-12-13T00:49:23.583Z,-0.40
2022-12-13T00:51:50.757Z,-0.40
2022-12-13T00:54:23.074Z,-0.50
2022-12-13T00:56:54.622Z,-0.50
2022-12-13T00:59:21.796Z,-0.60
2022-12-13T01:01:49.125Z,-0.60
2022-12-13T01:04:18.393Z,-0.60
2022-12-13T01:06:49.752Z,-0.60
2022-12-13T01:09:23.179Z,-0.60
2022-12-13T01:11:50.825Z,-0.70
2022-12-13T01:14:22.666Z,-0.70
2022-12-13T01:16:55.796Z,-0.70
2022-12-13T01:19:26.760Z,-0.70
2022-12-13T01:22:05.741Z,-0.70
2022-12-13T01:24:33.862Z,-0.80
2022-12-13T01:27:05.133Z,-0.80
2022-12-13T01:29:34.815Z,-0.80
2022-12-13T01:32:04.629Z,-0.90
2022-12-13T01:34:32.005Z,-0.90
2022-12-13T01:36:59.165Z,-0.90
2022-12-13T01:39:31.008Z,-0.90
2022-12-13T01:42:05.571Z,-1.00
2022-12-13T01:45:07.283Z,-1.00
2022-12-13T01:47:45.854Z,-1.00
2022-12-13T01:50:18.564Z,-1.00
2022-12-13T01:52:47.639Z,-1.10
2022-12-13T01:55:16.989Z,-1.10
2022-12-13T01:57:47.261Z,-1.10
2022-12-13T02:00:15.347Z,-1.10
2022-12-13T02:02:45.670Z,-1.10
2022-12-13T02:05:38.707Z,-1.10
2022-12-13T02:08:10.144Z,-1.10
2022-12-13T02:10:37.735Z,-1.20
2022-12-13T02:13:05.560Z,-1.20
2022-12-13T02:16:01.622Z,-1.10
2022-12-13T02:18:56.319Z,-1.10
2022-12-13T02:21:30.537Z,-1.10
2022-12-13T02:24:26.994Z,-1.10
2022-12-13T02:27:06.443Z,-1.10
2022-12-13T02:29:51.744Z,-1.10
2022-12-13T02:32:38.027Z,-1.10
2022-12-13T02:35:13.987Z,-1.10
2022-12-13T02:38:11.485Z,-1.10
2022-12-13T02:40:45.092Z,-1.10
2022-12-13T02:43:24.199Z,-1.10
2022-12-13T02:45:55.295Z,-1.00
2022-12-13T02:48:34.121Z,-1.00
2022-12-13T02:51:06.116Z,-1.00
2022-12-13T02:53:39.049Z,-1.00
2022-12-13T02:56:06.342Z,-1.00
2022-12-13T02:58:39.907Z,-1.00
2022-12-13T03:01:27.821Z,-1.10
2022-12-13T03:04:23.462Z,-1.10
2022-12-13T03:06:59.305Z,-1.10
2022-12-13T03:09:50.479Z,-1.20
2022-12-13T03:12:49.696Z,-1.20
2022-12-13T03:15:58.839Z,-1.20
2022-12-13T03:18:29.748Z,-1.20
2022-12-13T03:21:01.562Z,-1.30
2022-12-13T03:23:29.204Z,-1.30
2022-12-13T03:26:12.389Z,-1.30
2022-12-13T03:28:42.482Z,-1.30
2022-12-13T03:31:09.674Z,-1.30
2022-12-13T03:33:40.127Z,-1.30
2022-12-13T03:36:11.583Z,-1.30
2022-12-13T03:38:40.698Z,-1.30
2022-12-13T03:41:14.041Z,-1.30
2022-12-13T03:43:41.613Z,-1.20
2022-12-13T03:46:12.002Z,-1.20
2022-12-13T03:48:41.809Z,-1.20
2022-12-13T03:51:10.988Z,-1.20
2022-12-13T03:53:40.509Z,-1.20
2022-12-13T03:56:07.961Z,-1.20
2022-12-13T03:58:38.497Z,-1.10
2022-12-13T04:01:10.952Z,-1.10
2022-12-13T04:03:46.811Z,-1.10
2022-12-13T04:06:21.848Z,-1.20
2022-12-13T04:08:51.076Z,-1.10
2022-12-13T04:11:43.265Z,-1.10
2022-12-13T04:14:21.984Z,-1.10
2022-12-13T04:16:51.794Z,-1.10
2022-12-13T04:19:23.827Z,-1.10
2022-12-13T04:21:54.480Z,-1.10
2022-12-13T04:24:31.664Z,-1.10
2022-12-13T04:27:01.100Z,-1.10
2022-12-13T04:29:34.547Z,-1.10
2022-12-13T04:32:04.329Z,-1.10
2022-12-13T04:34:36.816Z,-1.10
2022-12-13T04:37:04.838Z,-1.10
2022-12-13T04:39:34.708Z,-1.20
2022-12-13T04:42:05.733Z,-1.20
2022-12-13T04:44:37.077Z,-1.20
2022-12-13T04:47:09.984Z,-1.20
2022-12-13T04:49:39.310Z,-1.20
2022-12-13T04:52:09.982Z,-1.20
2022-12-13T04:54:37.183Z,-1.20
2022-12-13T04:57:07.316Z,-1.20
2022-12-13T04:59:38.323Z,-1.20
2022-12-13T05:02:07.100Z,-1.20
2022-12-13T05:04:39.488Z,-1.30
2022-12-13T05:07:06.746Z,-1.30
2022-12-13T05:09:36.527Z,-1.30
2022-12-13T05:12:04.147Z,-1.30
2022-12-13T05:14:49.275Z,-1.40
2022-12-13T05:17:18.691Z,-1.40
2022-12-13T05:19:48.045Z,-1.40
2022-12-13T05:22:20.201Z,-1.40
2022-12-13T05:24:53.055Z,-1.40
2022-12-13T05:27:26.763Z,-1.50
2022-12-13T05:30:03.612Z,-1.50
2022-12-13T05:32:43.426Z,-1.50
2022-12-13T05:35:23.362Z,-1.50
2022-12-13T05:37:55.469Z,-1.50
2022-12-13T05:40:24.450Z,-1.50
2022-12-13T05:42:51.663Z,-1.50
2022-12-13T05:45:32.310Z,-1.50
2022-12-13T05:47:59.689Z,-1.50
2022-12-13T05:50:27.009Z,-1.50
2022-12-13T05:52:58.994Z,-1.50
2022-12-13T05:55:28.189Z,-1.50
2022-12-13T05:58:02.720Z,-1.50
2022-12-13T06:00:31.056Z,-1.50
2022-12-13T06:03:00.462Z,-1.50
2022-12-13T06:05:32.154Z,-1.50
2022-12-13T06:08:01.648Z,-1.50
2022-12-13T06:10:34.166Z,-1.50
2022-12-13T06:13:21.885Z,-1.50
2022-12-13T06:15:52.380Z,-1.40
2022-12-13T06:18:31.147Z,-1.50
2022-12-13T06:21:03.881Z,-1.50
2022-12-13T06:23:35.218Z,-1.40
2022-12-13T06:26:06.910Z,-1.40
2022-12-13T06:28:38.833Z,-1.40
2022-12-13T06:31:06.171Z,-1.40
2022-12-13T06:33:36.776Z,-1.50
2022-12-13T06:36:04.912Z,-1.50
2022-12-13T06:38:35.207Z,-1.50
2022-12-13T06:41:16.881Z,-1.50
2022-12-13T06:43:45.462Z,-1.60
2022-12-13T06:46:15.706Z,-1.60
2022-12-13T06:48:42.967Z,-1.60
2022-12-13T06:51:10.602Z,-1.60
2022-12-13T06:53:41.156Z,-1.60
2022-12-13T06:56:13.221Z,-1.70
2022-12-13T06:58:43.472Z,-1.70
2022-12-13T07:01:24.039Z,-1.70
2022-12-13T07:03:55.923Z,-1.60
2022-12-13T07:06:24.307Z,-1.70
2022-12-13T07:08:56.281Z,-1.70
2022-12-13T07:11:29.030Z,-1.70
2022-12-13T07:13:56.837Z,-1.70
2022-12-13T07:16:24.645Z,-1.70
2022-12-13T07:19:01.242Z,-1.70
2022-12-13T07:21:38.343Z,-1.70
2022-12-13T07:24:06.042Z,-1.70
2022-12-13T07:26:33.169Z,-1.70
2022-12-13T07:29:00.324Z,-1.70
2022-12-13T07:31:29.610Z,-1.70
2022-12-13T07:33:59.289Z,-1.70
2022-12-13T07:36:26.479Z,-1.70
2022-12-13T07:38:55.297Z,-1.80
2022-12-13T07:41:24.359Z,-1.80
2022-12-13T07:43:56.112Z,-1.80
2022-12-13T07:46:32.406Z,-1.70
2022-12-13T07:49:04.248Z,-1.70
2022-12-13T07:51:35.908Z,-1.80
2022-12-13T07:54:08.296Z,-1.80
2022-12-13T07:56:37.937Z,-1.80
2022-12-13T07:59:08.879Z,-1.80
2022-12-13T08:01:38.405Z,-1.80
2022-12-13T08:04:08.211Z,-1.80
2022-12-13T08:06:38.490Z,-1.80
2022-12-13T08:09:08.120Z,-1.80
2022-12-13T08:11:37.552Z,-1.80
2022-12-13T08:14:08.242Z,-1.80
2022-12-13T08:16:37.834Z,-1.80
2022-12-13T08:19:05.028Z,-1.80
2022-12-13T08:22:01.523Z,-1.80
2022-12-13T08:24:30.994Z,-1.80
2022-12-13T08:27:05.114Z,-1.70
2022-12-13T08:29:37.436Z,-1.70
2022-12-13T08:32:13.286Z,-1.70
2022-12-13T08:34:44.132Z,-1.60
2022-12-13T08:37:13.840Z,-1.60
2022-12-13T08:39:41.176Z,-1.60
2022-12-13T08:42:20.160Z,-1.60
2022-12-13T08:44:54.116Z,-1.60
2022-12-13T08:47:25.837Z,-1.60
2022-12-13T08:50:01.271Z,-1.50
2022-12-13T08:52:39.564Z,-1.50
2022-12-13T08:55:09.221Z,-1.50
2022-12-13T08:57:38.540Z,-1.40
2022-12-13T09:00:06.789Z,-1.40
2022-12-13T09:02:37.810Z,-1.40
2022-12-13T09:05:07.903Z,-1.30
2022-12-13T09:07:36.474Z,-1.30
2022-12-13T09:10:26.808Z,-1.30
2022-12-13T09:13:01.089Z,-1.20
2022-12-13T09:15:33.722Z,-1.20
2022-12-13T09:18:04.833Z,-1.10
2022-12-13T09:20:41.523Z,-1.10
2022-12-13T09:23:23.072Z,-1.00
2022-12-13T09:25:56.349Z,-1.00
2022-12-13T09:28:35.234Z,-0.90
2022-12-13T09:31:07.296Z,-0.80
2022-12-13T09:33:41.582Z,-0.80
2022-12-13T09:36:14.673Z,-0.80
2022-12-13T09:38:47.032Z,-0.70
2022-12-13T09:41:28.593Z,-0.70
2022-12-13T09:44:04.489Z,-0.60
2022-12-13T09:46:44.497Z,-0.60
2022-12-13T09:49:26.889Z,-0.50
2022-12-13T09:52:10.608Z,-0.40
2022-12-13T09:54:48.162Z,-0.40
2022-12-13T09:57:31.987Z,-0.30
2022-12-13T10:00:08.449Z,-0.20
2022-12-13T10:02:43.981Z,-0.20
2022-12-13T10:05:34.439Z,-0.20
2022-12-13T10:08:25.125Z,-0.10
2022-12-13T10:10:55.827Z,0.00
2022-12-13T10:13:43.530Z,0.00
2022-12-13T10:16:26.572Z,0.00
2022-12-13T10:19:28.966Z,0.10
2022-12-13T10:22:01.450Z,0.10
2022-12-13T10:24:48.156Z,0.20
2022-12-13T10:27:18.423Z,0.20
2022-12-13T10:30:08.790Z,0.20
2022-12-13T10:32:43.846Z,0.30
2022-12-13T10:35:22.246Z,0.30
2022-12-13T10:37:52.373Z,0.40
2022-12-13T10:40:48.955Z,0.40
2022-12-13T10:43:27.202Z,0.50
2022-12-13T10:45:57.901Z,0.50
2022-12-13T10:48:51.874Z,0.50
2022-12-13T10:51:25.313Z,0.60
2022-12-13T10:53:59.026Z,0.60
2022-12-13T10:56:41.650Z,0.60
2022-12-13T10:59:18.206Z,0.70
2022-12-13T11:01:48.076Z,0.70
2022-12-13T11:04:31.563Z,0.70
2022-12-13T11:07:26.230Z,0.80
2022-12-13T11:09:53.651Z,0.80
2022-12-13T11:12:26.608Z,0.80
2022-12-13T11:15:00.552Z,0.90
2022-12-13T11:17:30.821Z,0.90
2022-12-13T11:20:04.517Z,0.90
2022-12-13T11:22:38.516Z,1.00
2022-12-13T11:25:09.379Z,1.10
2022-12-13T11:28:02.768Z,1.10
2022-12-13T11:30:38.169Z,1.20
2022-12-13T11:33:17.127Z,1.20
2022-12-13T11:36:12.067Z,1.20
2022-12-13T11:39:00.380Z,1.30
2022-12-13T11:41:39.802Z,1.30
2022-12-13T11:44:24.009Z,1.40
2022-12-13T11:46:55.881Z,1.50
2022-12-13T11:49:43.948Z,1.50
2022-12-13T11:52:21.481Z,1.50
2022-12-13T11:54:51.952Z,1.60
2022-12-13T11:58:01.717Z,1.60
2022-12-13T12:00:37.682Z,1.70
2022-12-13T12:03:20.473Z,1.70
2022-12-13T12:05:57.262Z,1.80
2022-12-13T12:08:47.346Z,1.80
2022-12-13T12:11:40.569Z,1.90
2022-12-13T12:14:20.302Z,1.90
2022-12-13T12:16:55.772Z,2.00
2022-12-13T12:19:39.207Z,2.00
2022-12-13T12:22:33.455Z,2.00
2022-12-13T12:25:12.877Z,2.10
2022-12-13T12:27:57.896Z,2.20
2022-12-13T12:31:16.313Z,2.20
2022-12-13T12:34:08.968Z,2.20
2022-12-13T12:37:05.213Z,2.20
2022-12-13T12:39:43.732Z,2.20
2022-12-13T12:42:18.332Z,2.30
2022-12-13T12:44:58.100Z,2.20
2022-12-13T12:47:56.396Z,2.30
2022-12-13T12:50:23.174Z,2.30
2022-12-13T12:53:10.092Z,2.30
2022-12-13T12:55:51.621Z,2.40
2022-12-13T12:58:46.807Z,2.40
2022-12-13T13:01:37.750Z,2.50
2022-12-13T13:04:22.271Z,2.50
2022-12-13T13:07:23.247Z,2.50
2022-12-13T13:09:54.884Z,2.60
2022-12-13T13:12:29.162Z,2.60
2022-12-13T13:14:58.514Z,2.60
2022-12-13T13:17:25.809Z,2.60
2022-12-13T13:20:09.601Z,2.60
2022-12-13T13:22:42.877Z,2.70
2022-12-13T13:25:11.631Z,2.70
2022-12-13T13:27:48.357Z,2.70
2022-12-13T13:30:25.649Z,2.70
2022-12-13T13:32:57.910Z,2.70
2022-12-13T13:35:33.839Z,2.70
2022-12-13T13:38:20.600Z,2.80
2022-12-13T13:40:47.737Z,2.70
2022-12-13T13:43:17.401Z,2.70
2022-12-13T13:46:12.878Z,2.70
2022-12-13T13:49:15.849Z,2.70
2022-12-13T13:52:16.763Z,2.70
2022-12-13T13:54:50.708Z,2.70
2022-12-13T13:58:21.764Z,2.60
2022-12-13T14:01:07.764Z,2.60
2022-12-13T14:03:38.566Z,2.60
2022-12-13T14:06:35.334Z,2.60
2022-12-13T14:09:30.478Z,2.60
2022-12-13T14:12:15.742Z,2.60
2022-12-13T14:15:01.750Z,2.60
2022-12-13T14:17:58.236Z,2.60
2022-12-13T14:20:55.462Z,2.60
2022-12-13T14:23:32.166Z,2.50
2022-12-13T14:26:24.256Z,2.50
2022-12-13T14:29:02.652Z,2.50
2022-12-13T14:31:45.359Z,2.50
2022-12-13T14:34:26.378Z,2.50
2022-12-13T14:37:04.237Z,2.50
2022-12-13T14:39:34.689Z,2.60
2022-12-13T14:42:20.514Z,2.60
2022-12-13T14:44:49.952Z,2.60
2022-12-13T14:47:17.551Z,2.60
2022-12-13T14:49:50.772Z,2.60
2022-12-13T14:52:29.100Z,2.60
2022-12-13T14:54:59.596Z,2.60
2022-12-13T14:57:31.942Z,2.60
2022-12-13T15:00:19.830Z,2.50
2022-12-13T15:02:54.296Z,2.50
2022-12-13T15:05:32.639Z,2.50
2022-12-13T15:08:00.373Z,2.50
2022-12-13T15:10:48.258Z,2.50
2022-12-13T15:13:35.611Z,2.50
2022-12-13T15:16:10.197Z,2.50
2022-12-13T15:18:38.600Z,2.40
2022-12-13T15:21:27.950Z,2.40
2022-12-13T15:23:58.606Z,2.40
2022-12-13T15:26:28.296Z,2.30
2022-12-13T15:29:10.106Z,2.30
2022-12-13T15:31:40.875Z,2.30
2022-12-13T15:34:29.057Z,2.30
2022-12-13T15:37:03.176Z,2.30
2022-12-13T15:39:38.404Z,2.20
2022-12-13T15:42:15.815Z,2.20
2022-12-13T15:44:54.126Z,2.20
2022-12-13T15:47:28.314Z,2.10
2022-12-13T15:50:02.141Z,2.10
2022-12-13T15:52:31.271Z,2.00
2022-12-13T15:55:08.298Z,2.00
2022-12-13T15:57:36.573Z,2.00
2022-12-13T16:00:16.594Z,2.00
2022-12-13T16:03:14.460Z,1.90
2022-12-13T16:06:00.618Z,1.90
2022-12-13T16:08:40.818Z,1.90
2022-12-13T16:11:13.077Z,1.90
2022-12-13T16:13:40.231Z,1.90
2022-12-13T16:16:32.834Z,1.80
2022-12-13T16:19:18.236Z,1.80
2022-12-13T16:21:48.235Z,1.80
2022-12-13T16:24:18.324Z,1.80
2022-12-13T16:26:47.487Z,1.70
2022-12-13T16:29:19.280Z,1.70
2022-12-13T16:31:49.188Z,1.70
2022-12-13T16:34:19.743Z,1.70
2022-12-13T16:36:53.592Z,1.70
2022-12-13T16:39:20.752Z,1.70
2022-12-13T16:41:52.866Z,1.70
2022-12-13T16:44:26.586Z,1.70
2022-12-13T16:47:14.583Z,1.70
2022-12-13T16:49:45.589Z,1.70
2022-12-13T16:52:12.749Z,1.70
2022-12-13T16:54:39.880Z,1.70
2022-12-13T16:57:09.499Z,1.70
2022-12-13T16:59:41.074Z,1.70
2022-12-13T17:02:17.274Z,1.60
2022-12-13T17:04:46.948Z,1.60
2022-12-13T17:07:17.157Z,1.60
2022-12-13T17:09:44.410Z,1.60
2022-12-13T17:12:11.610Z,1.60
2022-12-13T17:14:41.515Z,1.60
2022-12-13T17:17:17.190Z,1.60
2022-12-13T17:19:47.268Z,1.70
2022-12-13T17:22:14.352Z,1.60
2022-12-13T17:24:41.492Z,1.60
2022-12-13T17:27:13.612Z,1.60
2022-12-13T17:29:46.937Z,1.60
2022-12-13T17:32:14.033Z,1.60
2022-12-13T17:34:41.138Z,1.60
2022-12-13T17:37:10.953Z,1.60
2022-12-13T17:39:40.577Z,1.60
2022-12-13T17:42:07.684Z,1.60
2022-12-13T17:44:35.207Z,1.60
2022-12-13T17:47:04.471Z,1.60
2022-12-13T17:49:33.624Z,1.60
2022-12-13T17:52:01.130Z,1.60
2022-12-13T17:54:30.499Z,1.60
2022-12-13T17:56:57.622Z,1.50
2022-12-13T17:59:24.748Z,1.50
2022-12-13T18:01:52.086Z,1.50
2022-12-13T18:04:20.419Z,1.50
2022-12-13T18:06:47.603Z,1.50
2022-12-13T18:09:14.766Z,1.50
2022-12-13T18:11:42.088Z,1.50
2022-12-13T18:14:09.313Z,1.50
2022-12-13T18:16:38.226Z,1.50
2022-12-13T18:19:14.903Z,1.50
2022-12-13T18:21:44.918Z,1.50
2022-12-13T18:24:14.971Z,1.50
2022-12-13T18:26:44.396Z,1.50
2022-12-13T18:29:11.513Z,1.50
2022-12-13T18:31:41.183Z,1.50
2022-12-13T18:34:11.308Z,1.50
2022-12-13T18:36:40.629Z,1.40
2022-12-13T18:39:07.829Z,1.40
2022-12-13T18:41:37.670Z,1.40
2022-12-13T18:44:10.128Z,1.40
2022-12-13T18:46:38.533Z,1.40
2022-12-13T18:49:06.603Z,1.40
2022-12-13T18:51:34.090Z,1.40
2022-12-13T18:54:01.358Z,1.30
2022-12-13T18:56:28.641Z,1.40
2022-12-13T18:58:58.051Z,1.40
2022-12-13T19:01:27.878Z,1.40
2022-12-13T19:03:55.309Z,1.40
2022-12-13T19:06:26.906Z,1.40
2022-12-13T19:08:57.904Z,1.40
2022-12-13T19:11:27.226Z,1.30
2022-12-13T19:13:59.264Z,1.30
2022-12-13T19:16:28.879Z,1.30
2022-12-13T19:18:57.301Z,1.30
2022-12-13T19:21:24.444Z,1.30
2022-12-13T19:23:57.672Z,1.30
2022-12-13T19:26:26.650Z,1.30
2022-12-13T19:28:59.392Z,1.30
2022-12-13T19:31:31.194Z,1.30
2022-12-13T19:34:00.864Z,1.30
2022-12-13T19:36:28.633Z,1.30
2022-12-13T19:38:56.210Z,1.30
2022-12-13T19:41:23.588Z,1.30
2022-12-13T19:43:54.128Z,1.20
2022-12-13T19:46:23.764Z,1.20
2022-12-13T19:48:53.728Z,1.20
2022-12-13T19:51:21.511Z,1.20
2022-12-13T19:53:49.063Z,1.20
2022-12-13T19:56:20.985Z,1.10
2022-12-13T19:58:54.184Z,1.10
2022-12-13T20:01:21.376Z,1.10
2022-12-13T20:03:51.334Z,1.10
2022-12-13T20:06:21.933Z,1.10
2022-12-13T20:08:49.782Z,1.10
2022-12-13T20:11:20.258Z,1.10
2022-12-13T20:13:53.256Z,1.00
2022-12-13T20:16:24.356Z,1.00
2022-12-13T20:19:01.098Z,1.00
2022-12-13T20:21:31.415Z,1.00
2022-12-13T20:24:01.614Z,0.90
2022-12-13T20:26:33.236Z,0.90
2022-12-13T20:29:02.931Z,1.00
2022-12-13T20:31:34.691Z,0.90
2022-12-13T20:34:14.083Z,0.90
2022-12-13T20:36:42.409Z,0.90
2022-12-13T20:39:12.425Z,0.90
2022-12-13T20:41:39.561Z,0.90
2022-12-13T20:44:09.248Z,0.90
2022-12-13T20:46:39.641Z,0.90
2022-12-13T20:49:09.036Z,0.90
2022-12-13T20:51:38.511Z,0.90
2022-12-13T20:54:10.540Z,0.90
2022-12-13T20:56:40.378Z,0.90
2022-12-13T20:59:11.985Z,0.90
2022-12-13T21:01:40.754Z,0.80
2022-12-13T21:04:11.996Z,0.90
2022-12-13T21:06:41.569Z,0.90
2022-12-13T21:09:12.197Z,0.80
2022-12-13T21:11:44.314Z,0.80
2022-12-13T21:14:25.868Z,0.80
2022-12-13T21:17:04.665Z,0.80
2022-12-13T21:19:39.133Z,0.80
2022-12-13T21:22:07.387Z,0.80
2022-12-13T21:24:39.273Z,0.80
2022-12-13T21:27:08.857Z,0.80
2022-12-13T21:29:36.071Z,0.80
2022-12-13T21:32:06.176Z,0.80
2022-12-13T21:34:35.903Z,0.80
2022-12-13T21:37:03.463Z,0.80
2022-12-13T21:39:33.362Z,0.80
2022-12-13T21:42:00.486Z,0.80
2022-12-13T21:44:28.442Z,0.70
2022-12-13T21:47:13.831Z,0.70
2022-12-13T21:49:48.840Z,0.80
2022-12-13T21:52:20.905Z,0.80
2022-12-13T21:54:47.994Z,0.80
2022-12-13T21:57:33.485Z,0.80
2022-12-13T22:00:02.819Z,0.80
2022-12-13T22:02:30.100Z,0.80
2022-12-13T22:04:59.426Z,0.80
2022-12-13T22:07:27.690Z,0.80
2022-12-13T22:09:58.271Z,0.70
2022-12-13T22:12:39.310Z,0.70
2022-12-13T22:15:14.211Z,0.70
2022-12-13T22:17:42.134Z,0.80
2022-12-13T22:20:15.338Z,0.80
2022-12-13T22:22:44.213Z,0.70
2022-12-13T22:25:11.408Z,0.80
2022-12-13T22:27:38.571Z,0.70
2022-12-13T22:30:06.298Z,0.70
2022-12-13T22:32:35.919Z,0.70
2022-12-13T22:35:04.770Z,0.70
2022-12-13T22:37:33.220Z,0.70
2022-12-13T22:40:02.843Z,0.60
2022-12-13T22:42:30.019Z,0.60
2022-12-13T22:44:57.139Z,0.60
2022-12-13T22:47:24.195Z,0.60
2022-12-13T22:49:55.893Z,0.60
2022-12-13T22:52:23.006Z,0.60
2022-12-13T22:54:50.122Z,0.60
2022-12-13T22:57:17.211Z,0.60
2022-12-13T22:59:44.811Z,0.60
2022-12-13T23:02:15.419Z,0.60
2022-12-13T23:04:42.592Z,0.60
2022-12-13T23:07:12.023Z,0.50
2022-12-13T23:09:42.541Z,0.50
2022-12-13T23:12:30.844Z,0.50
2022-12-13T23:14:57.967Z,0.50
2022-12-13T23:17:27.415Z,0.50
2022-12-13T23:19:54.575Z,0.50
2022-12-13T23:22:25.800Z,0.50
2022-12-13T23:24:53.434Z,0.50
2022-12-13T23:27:27.544Z,0.40
2022-12-13T23:29:57.054Z,0.40
2022-12-13T23:32:24.350Z,0.40
2022-12-13T23:34:55.953Z,0.40
2022-12-13T23:37:23.060Z,0.40
2022-12-13T23:39:50.166Z,0.40
2022-12-13T23:42:19.532Z,0.30
2022-12-13T23:44:48.870Z,0.30
2022-12-13T23:47:18.187Z,0.30
2022-12-13T23:49:45.300Z,0.30
2022-12-13T23:52:15.495Z,0.30
2022-12-13T23:54:44.971Z,0.30
2022-12-13T23:57:14.657Z,0.30
2022-12-13T23:59:41.994Z,0.30
